Time;durP1;ratioP1;P1;durP2;ratioP2;P2;SDS_P1;SDS_P2;PMS_P1;PMS_P2;Temp;Humidity;BMP_temperature;BMP_pressure;BME280_temperature;BME280_humidity;BME280_pressure;Samples;Min_cycle;Max_cycle;Signal;HPM_P1;HPM_P2
2022/10/15 00:02:55;;;;;;;60.47;40.80;;;;;;;;;;6227049;28;20049;-65
2022/10/15 00:05:56;;;;;;;62.87;41.00;;;;;;;;;;6226972;28;20125;-65
2022/10/15 00:08:58;;;;;;;63.15;41.75;;;;;;;;;;6224283;28;20479;-65
2022/10/15 00:12:00;;;;;;;62.55;41.00;;;;;;;;;;6224564;28;20276;-65
2022/10/15 00:15:01;;;;;;;60.22;39.97;;;;;;;;;;6226749;28;20045;-65
2022/10/15 00:18:04;;;;;;;68.50;44.15;;;;;;;;;;6224836;28;20053;-64
2022/10/15 00:21:07;;;;;;;60.05;42.38;;;;;;;;;;6224326;28;20073;-64
2022/10/15 00:24:09;;;;;;;67.27;42.53;;;;;;;;;;6224016;28;20290;-64
2022/10/15 00:27:10;;;;;;;66.05;41.78;;;;;;;;;;6227501;28;20129;-65
2022/10/15 00:30:13;;;;;;;71.25;45.13;;;;;;;;;;6223335;28;20159;-64
2022/10/15 00:33:16;;;;;;;74.35;47.53;;;;;;;;;;6227953;28;20337;-65
2022/10/15 00:36:19;;;;;;;72.57;45.77;;;;;;;;;;6226030;28;20061;-64
2022/10/15 00:39:20;;;;;;;72.82;43.42;;;;;;;;;;6225070;28;20591;-65
2022/10/15 00:42:22;;;;;;;69.88;44.03;;;;;;;;;;6223305;28;20233;-65
2022/10/15 00:45:24;;;;;;;60.85;42.70;;;;;;;;;;6226193;28;20191;-64
2022/10/15 00:48:27;;;;;;;64.80;41.15;;;;;;;;;;6227040;28;20113;-65
2022/10/15 00:51:33;;;;;;;64.68;39.75;;;;;;;;;;6227562;28;20053;-65
2022/10/15 00:54:38;;;;;;;61.78;39.33;;;;;;;;;;6226066;28;20058;-64
2022/10/15 00:57:40;;;;;;;62.53;39.75;;;;;;;;;;6226705;28;20050;-64
2022/10/15 01:00:42;;;;;;;60.22;39.67;;;;;;;;;;6226246;28;20072;-65
2022/10/15 01:03:45;;;;;;;63.10;39.85;;;;;;;;;;6223182;28;20101;-65
2022/10/15 01:06:47;;;;;;;63.20;39.95;;;;;;;;;;6228610;28;20057;-64
2022/10/15 01:09:48;;;;;;;61.15;39.78;;;;;;;;;;6229831;28;20153;-64
2022/10/15 01:12:59;;;;;;;59.60;39.88;;;;;;;;;;6228054;28;20053;-64
2022/10/15 01:16:07;;;;;;;59.17;39.63;;;;;;;;;;6230347;28;20332;-64
2022/10/15 01:19:24;;;;;;;69.35;40.45;;;;;;;;;;6228588;28;20050;-66
2022/10/15 01:22:49;;;;;;;62.33;39.75;;;;;;;;;;6228097;28;20058;-64
2022/10/15 01:26:01;;;;;;;60.53;38.03;;;;;;;;;;6226188;28;20160;-65
2022/10/15 01:29:10;;;;;;;61.10;38.28;;;;;;;;;;6229444;28;20071;-65
2022/10/15 01:32:18;;;;;;;58.80;37.38;;;;;;;;;;6232500;28;20054;-65
2022/10/15 01:35:31;;;;;;;57.13;36.80;;;;;;;;;;6226974;28;20233;-64
2022/10/15 01:38:39;;;;;;;58.08;39.00;;;;;;;;;;6227585;28;20065;-64
2022/10/15 01:41:43;;;;;;;57.08;37.78;;;;;;;;;;6229663;28;20064;-65
2022/10/15 01:44:49;;;;;;;60.67;38.60;;;;;;;;;;6228516;28;20054;-65
2022/10/15 01:47:53;;;;;;;66.13;39.47;;;;;;;;;;6222915;28;20340;-64
2022/10/15 01:50:57;;;;;;;62.72;39.42;;;;;;;;;;6231080;28;20053;-65
2022/10/15 01:54:00;;;;;;;62.83;38.90;;;;;;;;;;6225401;28;20069;-64
2022/10/15 01:57:03;;;;;;;61.38;38.83;;;;;;;;;;6227514;28;20112;-65
2022/10/15 02:00:05;;;;;;;44.08;27.77;;;;;;;;;;6229719;28;20111;-65
2022/10/15 02:03:08;;;;;;;56.25;37.97;;;;;;;;;;6227374;28;20050;-65
2022/10/15 02:06:13;;;;;;;60.43;37.47;;;;;;;;;;6228521;28;20288;-64
2022/10/15 02:09:18;;;;;;;58.78;38.75;;;;;;;;;;6226573;28;20480;-65
2022/10/15 02:12:32;;;;;;;61.83;39.28;;;;;;;;;;6230016;28;20046;-64
2022/10/15 02:15:36;;;;;;;62.17;40.55;;;;;;;;;;6228153;28;20411;-64
2022/10/15 02:18:42;;;;;;;62.08;38.53;;;;;;;;;;6228777;28;20045;-64
2022/10/15 02:21:47;;;;;;;61.90;41.00;;;;;;;;;;6231053;28;20049;-65
2022/10/15 02:24:52;;;;;;;67.30;41.30;;;;;;;;;;6229052;28;20265;-65
2022/10/15 02:27:55;;;;;;;62.38;39.40;;;;;;;;;;6226978;28;20058;-64
2022/10/15 02:30:58;;;;;;;65.20;40.45;;;;;;;;;;6228235;28;20298;-65
2022/10/15 02:34:04;;;;;;;60.63;38.47;;;;;;;;;;6228305;28;20070;-65
2022/10/15 02:37:07;;;;;;;63.97;41.00;;;;;;;;;;6228291;28;20326;-65
2022/10/15 02:40:10;;;;;;;65.10;41.60;;;;;;;;;;6228378;28;20277;-64
2022/10/15 02:43:13;;;;;;;75.60;43.30;;;;;;;;;;6228033;28;20338;-64
2022/10/15 02:46:16;;;;;;;67.63;41.70;;;;;;;;;;6225116;28;20329;-64
2022/10/15 02:49:19;;;;;;;68.00;41.97;;;;;;;;;;6225029;28;20492;-65
2022/10/15 02:52:20;;;;;;;67.33;42.63;;;;;;;;;;6225886;28;20049;-64
2022/10/15 02:55:22;;;;;;;64.75;40.45;;;;;;;;;;6227553;28;20464;-65
2022/10/15 02:58:24;;;;;;;64.50;40.20;;;;;;;;;;6226989;28;20060;-64
2022/10/15 03:01:26;;;;;;;66.97;40.35;;;;;;;;;;6229202;28;20061;-65
2022/10/15 03:04:29;;;;;;;65.65;41.08;;;;;;;;;;6225646;28;20066;-65
2022/10/15 03:07:31;;;;;;;63.33;40.37;;;;;;;;;;6227040;28;20073;-64
2022/10/15 03:10:32;;;;;;;64.50;40.97;;;;;;;;;;6225570;28;20691;-65
2022/10/15 03:13:35;;;;;;;64.97;41.58;;;;;;;;;;6230257;28;20057;-65
2022/10/15 03:16:37;;;;;;;67.00;40.13;;;;;;;;;;6226607;28;20049;-64
2022/10/15 03:19:40;;;;;;;66.70;41.50;;;;;;;;;;6226240;28;20050;-64
2022/10/15 03:22:42;;;;;;;68.10;41.07;;;;;;;;;;6229098;28;20221;-64
2022/10/15 03:25:43;;;;;;;66.45;42.13;;;;;;;;;;6227199;28;20054;-64
2022/10/15 03:28:45;;;;;;;69.28;43.42;;;;;;;;;;6227989;28;20238;-63
2022/10/15 03:31:46;;;;;;;66.95;43.65;;;;;;;;;;6227880;28;20050;-63
2022/10/15 03:34:49;;;;;;;63.25;40.90;;;;;;;;;;6226656;28;20084;-63
2022/10/15 03:37:51;;;;;;;65.90;42.03;;;;;;;;;;6224759;28;20269;-63
2022/10/15 03:40:53;;;;;;;63.22;42.45;;;;;;;;;;6226857;28;20460;-63
2022/10/15 03:43:54;;;;;;;65.53;41.55;;;;;;;;;;6227079;28;20054;-63
2022/10/15 03:46:56;;;;;;;63.30;40.08;;;;;;;;;;6225897;28;20046;-63
2022/10/15 03:49:59;;;;;;;63.20;39.85;;;;;;;;;;6224191;28;20073;-63
2022/10/15 03:53:03;;;;;;;67.47;40.87;;;;;;;;;;6226579;28;20096;-63
2022/10/15 03:56:05;;;;;;;64.70;40.42;;;;;;;;;;6229022;28;20058;-63
2022/10/15 03:59:07;;;;;;;64.47;40.05;;;;;;;;;;6232658;28;20145;-63
2022/10/15 04:02:08;;;;;;;62.72;39.35;;;;;;;;;;6231494;28;20061;-64
2022/10/15 04:05:11;;;;;;;64.95;40.55;;;;;;;;;;6229423;28;20042;-63
2022/10/15 04:08:13;;;;;;;62.10;39.07;;;;;;;;;;6229130;28;20081;-63
2022/10/15 04:11:15;;;;;;;59.15;38.58;;;;;;;;;;6230401;28;20480;-63
2022/10/15 04:14:18;;;;;;;65.05;39.42;;;;;;;;;;6231971;28;20090;-63
2022/10/15 04:17:19;;;;;;;64.88;41.15;;;;;;;;;;6230853;28;20053;-63
2022/10/15 04:20:22;;;;;;;68.18;42.08;;;;;;;;;;6228945;28;20053;-63
2022/10/15 04:23:24;;;;;;;64.95;39.15;;;;;;;;;;6230455;28;20319;-63
2022/10/15 04:26:26;;;;;;;65.10;39.95;;;;;;;;;;6231206;28;20049;-63
2022/10/15 04:29:27;;;;;;;62.08;38.70;;;;;;;;;;6229726;28;20112;-63
2022/10/15 04:32:29;;;;;;;60.88;37.28;;;;;;;;;;6231429;28;20058;-63
2022/10/15 04:35:33;;;;;;;67.38;41.58;;;;;;;;;;6230120;28;20045;-65
2022/10/15 04:38:35;;;;;;;71.18;41.33;;;;;;;;;;6229069;28;20109;-65
2022/10/15 04:41:37;;;;;;;77.95;41.58;;;;;;;;;;6229114;28;20056;-63
2022/10/15 04:44:38;;;;;;;76.80;43.15;;;;;;;;;;6229809;28;20334;-63
2022/10/15 04:47:40;;;;;;;75.47;43.03;;;;;;;;;;6230029;28;20144;-64
2022/10/15 04:50:43;;;;;;;72.55;41.15;;;;;;;;;;6231095;28;20045;-63
2022/10/15 04:53:45;;;;;;;75.80;42.58;;;;;;;;;;6229845;28;20462;-63
2022/10/15 04:56:46;;;;;;;71.57;42.83;;;;;;;;;;6228986;28;20124;-63
2022/10/15 04:59:48;;;;;;;68.22;42.22;;;;;;;;;;6229027;28;20348;-63
2022/10/15 05:02:50;;;;;;;83.38;44.35;;;;;;;;;;6229846;28;20064;-63
2022/10/15 05:05:53;;;;;;;73.05;43.33;;;;;;;;;;6228522;28;20064;-63
2022/10/15 05:08:54;;;;;;;71.70;43.10;;;;;;;;;;6229475;28;20341;-64
2022/10/15 05:11:56;;;;;;;70.50;42.35;;;;;;;;;;6231028;28;20053;-63
2022/10/15 05:14:57;;;;;;;76.80;44.17;;;;;;;;;;6229125;28;20092;-63
2022/10/15 05:17:59;;;;;;;72.05;43.30;;;;;;;;;;6229140;28;20061;-64
2022/10/15 05:21:03;;;;;;;72.53;45.10;;;;;;;;;;6228734;28;20054;-63
2022/10/15 05:24:05;;;;;;;71.50;42.75;;;;;;;;;;6228504;28;20069;-63
2022/10/15 05:27:07;;;;;;;75.18;44.92;;;;;;;;;;6227917;28;20056;-63
2022/10/15 05:30:09;;;;;;;73.47;44.08;;;;;;;;;;6227526;28;20053;-63
2022/10/15 05:33:11;;;;;;;73.03;44.13;;;;;;;;;;6229492;28;20112;-65
2022/10/15 05:36:17;;;;;;;73.93;46.63;;;;;;;;;;6228800;28;20041;-63
2022/10/15 05:39:18;;;;;;;74.75;44.97;;;;;;;;;;6229260;28;20087;-63
2022/10/15 05:42:20;;;;;;;73.72;44.85;;;;;;;;;;6227890;28;20050;-63
2022/10/15 05:45:22;;;;;;;71.35;45.28;;;;;;;;;;6228090;28;20054;-63
2022/10/15 05:48:24;;;;;;;77.63;45.78;;;;;;;;;;6226744;28;20046;-63
2022/10/15 05:51:28;;;;;;;79.32;47.53;;;;;;;;;;6227955;28;20045;-63
2022/10/15 05:54:29;;;;;;;75.35;45.90;;;;;;;;;;6225233;28;20053;-63
2022/10/15 05:57:31;;;;;;;79.90;47.35;;;;;;;;;;6223952;28;20113;-64
2022/10/15 06:00:33;;;;;;;86.05;48.72;;;;;;;;;;6227343;28;20119;-63
2022/10/15 06:03:35;;;;;;;74.60;44.63;;;;;;;;;;6225048;28;20114;-63
2022/10/15 06:06:38;;;;;;;85.10;49.20;;;;;;;;;;6223925;28;20108;-63
2022/10/15 06:09:39;;;;;;;79.23;45.97;;;;;;;;;;6225933;28;20061;-63
2022/10/15 06:12:41;;;;;;;82.68;49.60;;;;;;;;;;6228134;28;20448;-63
2022/10/15 06:15:44;;;;;;;77.80;46.75;;;;;;;;;;6225700;28;20368;-63
2022/10/15 06:18:46;;;;;;;80.22;48.97;;;;;;;;;;6227998;28;20057;-63
2022/10/15 06:21:49;;;;;;;81.18;49.40;;;;;;;;;;6230230;28;20342;-64
2022/10/15 06:24:50;;;;;;;83.93;48.40;;;;;;;;;;6227030;28;20058;-63
2022/10/15 06:27:52;;;;;;;81.30;48.10;;;;;;;;;;6226358;28;20081;-64
2022/10/15 06:30:54;;;;;;;80.68;48.13;;;;;;;;;;6225974;28;20310;-63
2022/10/15 06:33:55;;;;;;;84.35;49.30;;;;;;;;;;6227852;28;20045;-63
2022/10/15 06:36:58;;;;;;;76.85;47.42;;;;;;;;;;6226003;28;20230;-66
2022/10/15 06:40:00;;;;;;;74.67;45.67;;;;;;;;;;6227335;28;20038;-63
2022/10/15 06:43:06;;;;;;;72.10;44.28;;;;;;;;;;6229826;28;20192;-64
2022/10/15 06:46:08;;;;;;;70.80;43.65;;;;;;;;;;6227484;28;20049;-64
2022/10/15 06:49:10;;;;;;;73.65;43.60;;;;;;;;;;6227271;28;20057;-63
2022/10/15 06:52:13;;;;;;;71.15;43.25;;;;;;;;;;6226985;28;20046;-63
2022/10/15 06:55:15;;;;;;;69.30;43.30;;;;;;;;;;6227228;28;20054;-64
2022/10/15 06:58:16;;;;;;;67.80;41.58;;;;;;;;;;6226582;28;20464;-63
2022/10/15 07:01:18;;;;;;;69.95;41.47;;;;;;;;;;6225490;28;20054;-63
2022/10/15 07:04:19;;;;;;;69.95;41.70;;;;;;;;;;6224979;28;20096;-63
2022/10/15 07:07:22;;;;;;;62.13;38.08;;;;;;;;;;6226898;28;20115;-64
2022/10/15 07:10:25;;;;;;;60.90;38.17;;;;;;;;;;6225017;28;20104;-64
2022/10/15 07:13:27;;;;;;;72.57;41.95;;;;;;;;;;6226517;28;20471;-64
2022/10/15 07:16:28;;;;;;;66.70;39.10;;;;;;;;;;6227415;28;20440;-63
2022/10/15 07:19:30;;;;;;;71.50;42.40;;;;;;;;;;6226894;28;20249;-65
2022/10/15 07:22:33;;;;;;;65.80;41.33;;;;;;;;;;6225184;28;20053;-64
2022/10/15 07:25:34;;;;;;;74.20;42.07;;;;;;;;;;6225405;28;20616;-64
2022/10/15 07:28:36;;;;;;;68.65;42.38;;;;;;;;;;6224454;28;20149;-64
2022/10/15 07:31:37;;;;;;;65.70;42.40;;;;;;;;;;6229458;28;20105;-64
2022/10/15 07:34:39;;;;;;;68.15;42.35;;;;;;;;;;6231934;28;20234;-63
2022/10/15 07:37:42;;;;;;;72.78;44.25;;;;;;;;;;6230219;28;20072;-64
2022/10/15 07:40:44;;;;;;;71.47;43.83;;;;;;;;;;6231426;28;20046;-64
2022/10/15 07:43:46;;;;;;;72.45;42.95;;;;;;;;;;6230127;28;20566;-64
2022/10/15 07:46:48;;;;;;;73.35;43.28;;;;;;;;;;6231991;28;20115;-64
2022/10/15 07:49:49;;;;;;;78.03;45.30;;;;;;;;;;6229774;28;20117;-64
2022/10/15 07:52:52;;;;;;;101.85;46.83;;;;;;;;;;6230944;28;20048;-64
2022/10/15 07:55:56;;;;;;;86.63;46.33;;;;;;;;;;6229670;28;20099;-64
2022/10/15 07:58:57;;;;;;;79.47;45.45;;;;;;;;;;6232987;28;20460;-64
2022/10/15 08:01:59;;;;;;;73.32;43.72;;;;;;;;;;6231869;28;20269;-64
2022/10/15 08:05:01;;;;;;;74.53;47.28;;;;;;;;;;6229540;28;20053;-64
2022/10/15 08:08:04;;;;;;;67.03;42.22;;;;;;;;;;6228660;28;20058;-64
2022/10/15 08:11:06;;;;;;;68.93;42.33;;;;;;;;;;6231374;28;20085;-65
2022/10/15 08:14:08;;;;;;;69.95;44.28;;;;;;;;;;6229623;28;20065;-64
2022/10/15 08:17:10;;;;;;;74.85;44.97;;;;;;;;;;6229978;28;20046;-64
2022/10/15 08:20:12;;;;;;;77.32;45.22;;;;;;;;;;6229256;28;20049;-64
2022/10/15 08:23:16;;;;;;;73.50;46.05;;;;;;;;;;6230625;28;20057;-64
2022/10/15 08:26:18;;;;;;;69.22;43.88;;;;;;;;;;6231162;28;20061;-64
2022/10/15 08:29:20;;;;;;;77.50;47.10;;;;;;;;;;6228084;28;20050;-64
2022/10/15 08:32:22;;;;;;;68.65;44.72;;;;;;;;;;6234156;28;20054;-64
2022/10/15 08:35:23;;;;;;;74.05;43.42;;;;;;;;;;6229217;28;20058;-64
2022/10/15 08:38:26;;;;;;;70.55;45.90;;;;;;;;;;6228577;28;20065;-64
2022/10/15 08:41:31;;;;;;;76.50;47.00;;;;;;;;;;6225851;28;20345;-64
2022/10/15 08:44:39;;;;;;;78.05;46.03;;;;;;;;;;6230003;28;20077;-64
2022/10/15 08:47:43;;;;;;;80.78;47.00;;;;;;;;;;6229129;28;20123;-64
2022/10/15 08:50:48;;;;;;;76.70;48.67;;;;;;;;;;6229847;28;20050;-64
2022/10/15 08:53:54;;;;;;;75.10;46.28;;;;;;;;;;6228144;28;20065;-64
2022/10/15 08:57:08;;;;;;;79.28;49.10;;;;;;;;;;6229505;28;20053;-64
2022/10/15 09:00:59;;;;;;;79.15;47.55;;;;;;;;;;6229417;28;20045;-64
2022/10/15 09:04:09;;;;;;;81.43;47.83;;;;;;;;;;6229213;28;20073;-64
2022/10/15 09:07:14;;;;;;;78.95;46.28;;;;;;;;;;6229576;28;20441;-64
2022/10/15 09:10:23;;;;;;;77.00;45.90;;;;;;;;;;6229070;28;20061;-64
2022/10/15 09:13:26;;;;;;;81.80;49.33;;;;;;;;;;6230252;28;20429;-64
2022/10/15 09:16:30;;;;;;;83.27;48.97;;;;;;;;;;6227977;28;20046;-64
2022/10/15 09:19:31;;;;;;;;;;;;;;;;;;6230168;28;20469;-64
2022/10/15 09:22:34;;;;;;;79.57;45.75;;;;;;;;;;6228536;28;19937;-64
2022/10/15 09:25:40;;;;;;;79.18;48.88;;;;;;;;;;6228149;28;20107;-64
2022/10/15 09:28:45;;;;;;;78.65;47.58;;;;;;;;;;6226806;28;21699;-64
2022/10/15 09:31:50;;;;;;;80.93;50.35;;;;;;;;;;6228400;28;20049;-65
2022/10/15 09:34:57;;;;;;;74.70;45.58;;;;;;;;;;6229194;28;20115;-64
2022/10/15 09:38:04;;;;;;;74.72;47.35;;;;;;;;;;6229113;28;20058;-64
2022/10/15 09:41:15;;;;;;;76.05;46.55;;;;;;;;;;6229830;28;20103;-65
2022/10/15 09:44:17;;;;;;;75.18;48.58;;;;;;;;;;6227057;28;20089;-64
2022/10/15 09:47:24;;;;;;;83.00;49.22;;;;;;;;;;6226912;28;20109;-64
2022/10/15 09:50:29;;;;;;;78.68;48.25;;;;;;;;;;6229066;28;20395;-64
2022/10/15 09:53:40;;;;;;;75.03;46.88;;;;;;;;;;6231952;28;20092;-64
2022/10/15 09:56:47;;;;;;;73.50;45.20;;;;;;;;;;6231116;28;20064;-64
2022/10/15 09:59:55;;;;;;;76.10;47.40;;;;;;;;;;6234976;28;20087;-65
2022/10/15 10:03:05;;;;;;;77.65;49.28;;;;;;;;;;6232194;28;20057;-64
2022/10/15 10:06:09;;;;;;;79.32;49.13;;;;;;;;;;6232307;28;20084;-65
2022/10/15 10:09:16;;;;;;;78.28;49.17;;;;;;;;;;6235773;28;20335;-65
2022/10/15 10:12:21;;;;;;;79.05;49.67;;;;;;;;;;6230184;28;20053;-64
2022/10/15 10:15:29;;;;;;;77.88;47.38;;;;;;;;;;6233535;28;20054;-65
2022/10/15 10:18:31;;;;;;;81.85;51.88;;;;;;;;;;6232218;28;20062;-65
2022/10/15 10:21:35;;;;;;;74.53;50.15;;;;;;;;;;6234565;28;20108;-64
2022/10/15 10:24:37;;;;;;;78.05;48.72;;;;;;;;;;6234121;28;20050;-65
2022/10/15 10:27:45;;;;;;;83.35;51.85;;;;;;;;;;6233628;28;20397;-65
2022/10/15 10:30:52;;;;;;;77.97;51.42;;;;;;;;;;6226608;28;20054;-65
2022/10/15 10:33:54;;;;;;;77.28;47.75;;;;;;;;;;6227739;28;20057;-64
2022/10/15 10:36:56;;;;;;;77.78;49.75;;;;;;;;;;6225215;28;20056;-64
2022/10/15 10:39:59;;;;;;;90.40;54.85;;;;;;;;;;6226774;28;20065;-64
2022/10/15 10:43:18;;;;;;;80.25;50.92;;;;;;;;;;6222592;28;20106;-64
2022/10/15 10:46:22;;;;;;;75.97;49.55;;;;;;;;;;6218482;28;20053;-64
2022/10/15 10:49:30;;;;;;;68.97;45.13;;;;;;;;;;6227663;28;20053;-64
2022/10/15 10:52:33;;;;;;;66.57;46.03;;;;;;;;;;6223936;28;21058;-64
2022/10/15 10:55:38;;;;;;;73.93;51.45;;;;;;;;;;6229820;28;20061;-61
2022/10/15 10:58:42;;;;;;;76.07;52.75;;;;;;;;;;6221096;28;20206;-61
2022/10/15 11:01:44;;;;;;;71.88;50.72;;;;;;;;;;6228650;28;20364;-60
2022/10/15 11:04:46;;;;;;;73.32;52.38;;;;;;;;;;6226958;28;20061;-62
2022/10/15 11:07:53;;;;;;;54.35;41.63;;;;;;;;;;6230908;28;20088;-65
2022/10/15 11:10:59;;;;;;;55.00;39.95;;;;;;;;;;6229360;28;20064;-64
2022/10/15 11:14:16;;;;;;;56.63;39.70;;;;;;;;;;6231100;28;20050;-64
2022/10/15 11:17:22;;;;;;;54.05;39.50;;;;;;;;;;6229200;28;20125;-64
2022/10/15 11:20:28;;;;;;;44.42;32.17;;;;;;;;;;6226336;28;20049;-64
2022/10/15 11:23:45;;;;;;;38.80;27.40;;;;;;;;;;6228319;28;20108;-66
2022/10/15 11:26:58;;;;;;;36.22;29.35;;;;;;;;;;6227304;28;20058;-65
2022/10/15 11:30:04;;;;;;;31.98;24.25;;;;;;;;;;6229878;28;20942;-66
2022/10/15 11:33:16;;;;;;;38.22;27.73;;;;;;;;;;6228671;28;20049;-65
2022/10/15 11:36:36;;;;;;;26.35;19.35;;;;;;;;;;6226572;28;20050;-67
2022/10/15 11:39:54;;;;;;;33.15;25.58;;;;;;;;;;6225883;28;20048;-66
2022/10/15 11:42:59;;;;;;;33.92;26.55;;;;;;;;;;6225884;28;20096;-65
2022/10/15 11:46:04;;;;;;;35.80;28.45;;;;;;;;;;6224042;28;20857;-65
2022/10/15 11:49:18;;;;;;;30.67;24.15;;;;;;;;;;6230031;28;20041;-66
2022/10/15 11:52:38;;;;;;;24.90;20.65;;;;;;;;;;6231076;28;20066;-66
2022/10/15 11:55:41;;;;;;;30.85;24.63;;;;;;;;;;6229639;28;20100;-65
2022/10/15 11:58:46;;;;;;;31.45;25.00;;;;;;;;;;6230112;28;20107;-63
2022/10/15 12:01:53;;;;;;;71.57;56.95;;;;;;;;;;6231069;28;20088;-62
2022/10/15 12:04:58;;;;;;;39.22;31.13;;;;;;;;;;6227813;28;20057;-63
2022/10/15 12:08:00;;;;;;;63.47;48.67;;;;;;;;;;6227282;28;20061;-63
2022/10/15 12:11:21;;;;;;;34.42;27.33;;;;;;;;;;6228622;28;20100;-63
2022/10/15 12:14:27;;;;;;;55.35;41.50;;;;;;;;;;6226467;28;20060;-64
2022/10/15 12:17:36;;;;;;;62.85;51.92;;;;;;;;;;6230735;28;20124;-63
2022/10/15 12:20:41;;;;;;;48.60;39.30;;;;;;;;;;6229728;28;20156;-63
2022/10/15 12:23:42;;;;;;;47.53;40.33;;;;;;;;;;6230371;28;20053;-64
2022/10/15 12:26:44;;;;;;;37.35;30.83;;;;;;;;;;6231291;28;20053;-63
2022/10/15 12:29:46;;;;;;;26.58;21.35;;;;;;;;;;6232312;28;20049;-64
2022/10/15 12:32:49;;;;;;;23.17;19.02;;;;;;;;;;6233627;28;20147;-67
2022/10/15 12:35:54;;;;;;;24.80;15.43;;;;;;;;;;6229371;28;20045;-67
2022/10/15 12:38:57;;;;;;;17.75;15.35;;;;;;;;;;6229661;28;20237;-67
2022/10/15 12:42:00;;;;;;;23.17;17.05;;;;;;;;;;6230795;28;20054;-65
2022/10/15 12:45:04;;;;;;;22.00;16.48;;;;;;;;;;6230943;28;20049;-67
2022/10/15 12:48:21;;;;;;;22.23;17.27;;;;;;;;;;6228515;28;20405;-65
2022/10/15 12:51:33;;;;;;;15.40;13.68;;;;;;;;;;6229399;28;20062;-65
2022/10/15 12:54:40;;;;;;;14.35;11.85;;;;;;;;;;6230806;28;20116;-66
2022/10/15 12:57:56;;;;;;;16.75;11.52;;;;;;;;;;6229604;28;20112;-66
2022/10/15 13:00:58;;;;;;;17.25;14.77;;;;;;;;;;6229515;28;20111;-65
2022/10/15 13:04:01;;;;;;;13.63;11.15;;;;;;;;;;6229878;28;20057;-66
2022/10/15 13:07:03;;;;;;;15.50;11.48;;;;;;;;;;6230967;28;20218;-65
2022/10/15 13:10:05;;;;;;;11.18;8.68;;;;;;;;;;6229090;28;20079;-65
2022/10/15 13:13:12;;;;;;;11.82;9.70;;;;;;;;;;6229169;28;20050;-65
2022/10/15 13:16:14;;;;;;;11.82;9.93;;;;;;;;;;6228143;28;20116;-66
2022/10/15 13:19:20;;;;;;;;;;;;;;;;;;6231479;28;20211;-65
2022/10/15 13:22:24;;;;;;;18.00;15.23;;;;;;;;;;6230835;28;19925;-66
2022/10/15 13:25:26;;;;;;;15.35;12.95;;;;;;;;;;6230398;28;20120;-66
2022/10/15 13:28:33;;;;;;;15.93;14.25;;;;;;;;;;6228587;28;20050;-66
2022/10/15 13:31:36;;;;;;;16.80;14.95;;;;;;;;;;6231208;28;20112;-66
2022/10/15 13:34:39;;;;;;;19.83;14.88;;;;;;;;;;6229492;28;20277;-67
2022/10/15 13:37:41;;;;;;;16.77;13.68;;;;;;;;;;6232309;28;20069;-66
2022/10/15 13:40:42;;;;;;;;;;;;;;;;;;6231135;28;20080;-64
2022/10/15 13:43:52;;;;;;;82.63;68.63;;;;;;;;;;6227142;28;19933;-65
2022/10/15 13:46:54;;;;;;;70.20;61.03;;;;;;;;;;6211357;28;20056;-66
2022/10/15 13:50:21;;;;;;;156.38;125.93;;;;;;;;;;6228981;28;20053;-67
2022/10/15 13:53:26;;;;;;;49.47;39.53;;;;;;;;;;6225004;28;20045;-65
2022/10/15 13:56:30;;;;;;;53.17;45.50;;;;;;;;;;6229324;28;20045;-66
2022/10/15 13:59:32;;;;;;;28.30;25.25;;;;;;;;;;6232407;28;20041;-65
2022/10/15 14:02:33;;;;;;;52.88;47.25;;;;;;;;;;6227541;28;20045;-65
2022/10/15 14:05:36;;;;;;;68.17;59.43;;;;;;;;;;6230168;28;20053;-64
2022/10/15 14:08:38;;;;;;;17.85;15.55;;;;;;;;;;6227937;28;20468;-68
2022/10/15 14:11:39;;;;;;;13.00;7.88;;;;;;;;;;6230220;28;20068;-68
2022/10/15 14:14:45;;;;;;;9.32;8.27;;;;;;;;;;6229070;28;20123;-66
2022/10/15 14:17:49;;;;;;;9.82;7.05;;;;;;;;;;6228279;28;20436;-67
2022/10/15 14:20:53;;;;;;;8.32;6.28;;;;;;;;;;6227631;28;20046;-67
2022/10/15 14:24:03;;;;;;;9.75;6.68;;;;;;;;;;6226115;28;20191;-68
2022/10/15 14:27:07;;;;;;;57.72;51.92;;;;;;;;;;6232831;28;20125;-64
2022/10/15 14:30:13;;;;;;;58.17;44.55;;;;;;;;;;6230545;28;20401;-68
2022/10/15 14:33:33;;;;;;;32.58;29.05;;;;;;;;;;6227228;28;20053;-67
2022/10/15 14:36:42;;;;;;;19.63;17.10;;;;;;;;;;6226378;28;20376;-66
2022/10/15 14:39:48;;;;;;;14.98;11.15;;;;;;;;;;6228477;28;20108;-68
2022/10/15 14:43:02;;;;;;;15.43;10.70;;;;;;;;;;6226727;28;20058;-68
2022/10/15 14:46:05;;;;;;;17.65;13.63;;;;;;;;;;6226861;28;20058;-68
2022/10/15 14:49:23;;;;;;;16.23;11.18;;;;;;;;;;6232145;28;20696;-68
2022/10/15 14:52:29;;;;;;;12.15;9.00;;;;;;;;;;6232849;28;20068;-67
2022/10/15 14:55:36;;;;;;;12.68;10.40;;;;;;;;;;6233711;28;20084;-67
2022/10/15 14:58:40;;;;;;;13.93;10.07;;;;;;;;;;6233668;28;20069;-67
2022/10/15 15:01:51;;;;;;;12.45;9.65;;;;;;;;;;6229661;28;20269;-67
2022/10/15 15:05:07;;;;;;;16.45;11.10;;;;;;;;;;6232707;28;20061;-67
2022/10/15 15:08:10;;;;;;;16.77;12.20;;;;;;;;;;6229485;28;20281;-67
2022/10/15 15:11:13;;;;;;;14.15;11.07;;;;;;;;;;6231929;28;20108;-67
2022/10/15 15:14:22;;;;;;;13.10;10.32;;;;;;;;;;6234452;28;20107;-66
2022/10/15 15:17:25;;;;;;;16.17;11.63;;;;;;;;;;6233283;28;20050;-67
2022/10/15 15:20:27;;;;;;;15.82;11.80;;;;;;;;;;6232779;28;20523;-66
2022/10/15 15:23:30;;;;;;;16.38;12.90;;;;;;;;;;6234597;28;20058;-66
2022/10/15 15:26:32;;;;;;;17.02;12.15;;;;;;;;;;6233829;28;20589;-66
2022/10/15 15:29:33;;;;;;;13.43;10.68;;;;;;;;;;6232179;28;20269;-67
2022/10/15 15:32:35;;;;;;;14.38;10.60;;;;;;;;;;6231620;28;20057;-67
2022/10/15 15:35:39;;;;;;;14.63;10.27;;;;;;;;;;6233232;28;20285;-67
2022/10/15 15:38:42;;;;;;;15.90;10.38;;;;;;;;;;6231057;28;20053;-67
2022/10/15 15:41:44;;;;;;;;;;;;;;;;;;6232884;28;20057;-67
2022/10/15 15:44:45;;;;;;;15.25;11.35;;;;;;;;;;6235795;28;19917;-68
2022/10/15 15:47:47;;;;;;;12.80;10.07;;;;;;;;;;6233155;28;20343;-67
2022/10/15 15:50:49;;;;;;;13.35;10.05;;;;;;;;;;6232357;28;20345;-68
2022/10/15 15:53:52;;;;;;;17.42;12.95;;;;;;;;;;6237514;28;20058;-69
2022/10/15 15:56:54;;;;;;;17.90;11.88;;;;;;;;;;6237527;28;20061;-69
2022/10/15 15:59:55;;;;;;;16.33;12.23;;;;;;;;;;6236414;28;20069;-67
2022/10/15 16:02:57;;;;;;;19.00;14.60;;;;;;;;;;6239047;28;20054;-67
2022/10/15 16:05:58;;;;;;;16.52;12.73;;;;;;;;;;6236731;28;20069;-67
2022/10/15 16:09:04;;;;;;;18.30;12.88;;;;;;;;;;6237012;28;20050;-68
2022/10/15 16:12:06;;;;;;;19.10;14.23;;;;;;;;;;6235375;28;20057;-67
2022/10/15 16:15:08;;;;;;;19.95;16.02;;;;;;;;;;6235563;28;20038;-68
2022/10/15 16:18:11;;;;;;;21.20;16.48;;;;;;;;;;6237196;28;20053;-68
2022/10/15 16:21:12;;;;;;;29.67;18.50;;;;;;;;;;6235602;28;20059;-67
2022/10/15 16:24:15;;;;;;;18.98;14.13;;;;;;;;;;6234962;28;20100;-67
2022/10/15 16:27:17;;;;;;;25.80;19.15;;;;;;;;;;6237549;28;20349;-68
2022/10/15 16:30:19;;;;;;;18.90;15.23;;;;;;;;;;6235269;28;20084;-67
2022/10/15 16:33:20;;;;;;;23.08;16.95;;;;;;;;;;6235029;28;20050;-69
2022/10/15 16:36:22;;;;;;;22.08;14.70;;;;;;;;;;6234477;28;20050;-68
2022/10/15 16:39:25;;;;;;;23.48;16.63;;;;;;;;;;6235094;28;20123;-67
2022/10/15 16:42:26;;;;;;;19.27;15.07;;;;;;;;;;6235707;28;20060;-67
2022/10/15 16:45:28;;;;;;;27.88;15.82;;;;;;;;;;6234835;28;20053;-67
2022/10/15 16:48:31;;;;;;;22.38;16.70;;;;;;;;;;6236255;28;20049;-67
2022/10/15 16:51:33;;;;;;;20.55;15.32;;;;;;;;;;6233487;28;20061;-67
2022/10/15 16:54:36;;;;;;;21.55;15.82;;;;;;;;;;6235613;28;20042;-65
2022/10/15 16:57:37;;;;;;;26.40;17.30;;;;;;;;;;6234735;28;20119;-66
2022/10/15 17:00:40;;;;;;;31.83;17.73;;;;;;;;;;6234601;28;20062;-67
2022/10/15 17:03:42;;;;;;;31.58;18.50;;;;;;;;;;6235294;28;20058;-67
2022/10/15 17:06:44;;;;;;;24.20;17.63;;;;;;;;;;6234676;28;20249;-67
2022/10/15 17:09:48;;;;;;;23.60;16.60;;;;;;;;;;6234676;28;20053;-66
2022/10/15 17:12:49;;;;;;;32.50;19.60;;;;;;;;;;6234035;28;20053;-68
2022/10/15 17:15:51;;;;;;;25.98;17.52;;;;;;;;;;6234170;28;20123;-67
2022/10/15 17:18:54;;;;;;;24.15;17.48;;;;;;;;;;6235451;28;20053;-67
2022/10/15 17:21:55;;;;;;;26.67;17.52;;;;;;;;;;6234908;28;20080;-67
2022/10/15 17:24:58;;;;;;;20.52;15.88;;;;;;;;;;6235627;28;20322;-67
2022/10/15 17:28:00;;;;;;;27.13;21.17;;;;;;;;;;6233174;28;20342;-67
2022/10/15 17:31:02;;;;;;;27.98;20.33;;;;;;;;;;6234818;28;20054;-67
2022/10/15 17:34:05;;;;;;;29.42;19.75;;;;;;;;;;6235281;28;20057;-67
2022/10/15 17:37:07;;;;;;;26.05;18.80;;;;;;;;;;6234148;28;20041;-66
2022/10/15 17:40:11;;;;;;;26.95;19.83;;;;;;;;;;6235002;28;20241;-67
2022/10/15 17:43:13;;;;;;;29.65;21.38;;;;;;;;;;6235413;28;20061;-67
2022/10/15 17:46:16;;;;;;;28.63;20.83;;;;;;;;;;6237690;28;20053;-67
2022/10/15 17:49:18;;;;;;;28.80;21.27;;;;;;;;;;6234995;28;20053;-67
2022/10/15 17:52:19;;;;;;;29.33;21.13;;;;;;;;;;6235441;28;20042;-68
2022/10/15 17:55:24;;;;;;;28.45;21.15;;;;;;;;;;6234018;28;20061;-67